createdAt,value
2023-03-04T00:04:00.145Z,0.50
2023-03-04T00:09:03.759Z,0.50
2023-03-04T00:14:05.471Z,0.40
2023-03-04T00:19:07.219Z,0.30
2023-03-04T00:24:08.999Z,0.30
2023-03-04T00:29:10.779Z,0.30
2023-03-04T00:34:12.584Z,0.30
2023-03-04T00:39:14.522Z,0.40
2023-03-04T00:44:16.314Z,0.30
2023-03-04T00:49:18.162Z,0.20
2023-03-04T00:54:19.954Z,0.30
2023-03-04T00:59:21.726Z,0.30
2023-03-04T01:04:23.713Z,0.30
2023-03-04T01:09:26.780Z,0.30
2023-03-04T01:14:28.547Z,0.30
2023-03-04T01:19:30.404Z,0.20
2023-03-04T01:24:34.304Z,0.20
2023-03-04T01:29:37.029Z,0.20
2023-03-04T01:34:38.772Z,0.10
2023-03-04T01:39:40.612Z,0.10
2023-03-04T01:44:43.770Z,0.10
2023-03-04T01:49:55.374Z,0.10
2023-03-04T01:54:57.850Z,0.00
2023-03-04T02:00:24.357Z,-0.10
2023-03-04T02:05:27.205Z,-0.20
2023-03-04T02:10:29.336Z,-0.20
2023-03-04T02:15:31.830Z,-0.20
2023-03-04T02:20:51.306Z,-0.20
2023-03-04T02:26:18.571Z,-0.20
2023-03-04T02:31:27.180Z,-0.30
2023-03-04T02:36:31.670Z,-0.40
2023-03-04T02:41:34.303Z,-0.50
2023-03-04T02:46:36.543Z,-0.50
2023-03-04T02:51:38.872Z,-0.60
2023-03-04T02:56:48.220Z,-0.60
2023-03-04T03:01:51.799Z,-0.60
2023-03-04T03:06:54.389Z,-0.60
2023-03-04T03:11:56.654Z,-0.70
2023-03-04T03:16:58.643Z,-0.80
2023-03-04T03:22:00.543Z,-0.80
2023-03-04T03:27:02.567Z,-0.80
2023-03-04T03:32:05.466Z,-0.80
2023-03-04T03:37:07.295Z,-0.90
2023-03-04T03:42:09.082Z,-1.00
2023-03-04T03:47:10.846Z,-1.00
2023-03-04T03:52:12.859Z,-1.20
2023-03-04T03:57:14.674Z,-1.20
2023-03-04T04:02:16.612Z,-1.20
2023-03-04T04:07:18.718Z,-1.20
2023-03-04T04:12:20.853Z,-1.30
2023-03-04T04:17:22.681Z,-1.30
2023-03-04T04:22:24.485Z,-1.40
2023-03-04T04:27:26.245Z,-1.50
2023-03-04T04:32:28.069Z,-1.60
2023-03-04T04:37:29.835Z,-1.60
2023-03-04T04:42:31.672Z,-1.60
2023-03-04T04:47:33.432Z,-1.60
2023-03-04T04:52:35.245Z,-1.70
2023-03-04T04:57:37.585Z,-1.80
2023-03-04T05:02:39.649Z,-1.80
2023-03-04T05:07:41.435Z,-1.80
2023-03-04T05:12:44.834Z,-1.90
2023-03-04T05:17:46.574Z,-1.90
2023-03-04T05:22:48.348Z,-2.10
2023-03-04T05:27:50.130Z,-2.10
2023-03-04T05:32:51.855Z,-1.90
2023-03-04T05:37:53.627Z,-2.00
2023-03-04T05:42:56.630Z,-2.20
2023-03-04T05:47:58.458Z,-2.20
2023-03-04T05:53:00.407Z,-2.20
2023-03-04T05:58:02.141Z,-2.10
2023-03-04T06:03:03.993Z,-2.10
2023-03-04T06:08:05.830Z,-2.20
2023-03-04T06:13:08.343Z,-2.20
2023-03-04T06:18:10.125Z,-2.10
2023-03-04T06:23:11.875Z,-2.10
2023-03-04T06:28:13.602Z,-2.10
2023-03-04T06:33:15.387Z,-2.00
2023-03-04T06:38:17.176Z,-1.60
2023-03-04T06:43:19.826Z,-1.30
2023-03-04T06:48:21.594Z,-1.00
2023-03-04T06:53:23.486Z,-0.60
2023-03-04T06:58:25.309Z,-0.30
2023-03-04T07:03:27.096Z,0.10
2023-03-04T07:08:28.855Z,0.50
2023-03-04T07:13:30.928Z,0.70
2023-03-04T07:18:32.662Z,1.00
2023-03-04T07:23:35.628Z,1.20
2023-03-04T07:28:37.831Z,1.60
2023-03-04T07:33:39.556Z,1.80
2023-03-04T07:38:45.668Z,2.00
2023-03-04T07:43:47.880Z,2.20
2023-03-04T07:48:49.613Z,2.50
2023-03-04T07:53:54.489Z,2.90
2023-03-04T07:58:56.404Z,3.30
2023-03-04T08:03:58.665Z,3.50
2023-03-04T08:09:06.515Z,3.80
2023-03-04T08:14:09.284Z,3.90
2023-03-04T08:19:12.480Z,4.20
2023-03-04T08:24:14.366Z,4.20
2023-03-04T08:29:21.126Z,4.40
2023-03-04T08:34:25.742Z,4.50
2023-03-04T08:39:27.501Z,4.50
2023-03-04T08:44:29.392Z,4.30
2023-03-04T08:49:31.198Z,4.20
2023-03-04T08:54:32.994Z,4.10
2023-03-04T08:59:36.563Z,4.30
2023-03-04T09:04:40.036Z,4.50
2023-03-04T09:09:41.845Z,4.30
2023-03-04T09:14:43.591Z,4.20
2023-03-04T09:19:45.303Z,4.00
2023-03-04T09:24:47.042Z,4.10
2023-03-04T09:29:49.414Z,4.20
2023-03-04T09:34:51.286Z,4.30
2023-03-04T09:39:53.122Z,4.30
2023-03-04T09:44:55.759Z,4.10
2023-03-04T09:50:04.719Z,4.00
2023-03-04T09:55:28.167Z,3.70
2023-03-04T10:00:32.901Z,3.50
2023-03-04T10:05:57.567Z,3.20
2023-03-04T10:11:01.654Z,2.90
2023-03-04T10:16:08.168Z,2.70
2023-03-04T10:21:33.310Z,2.50
2023-03-04T10:26:35.134Z,2.40
2023-03-04T10:31:38.154Z,2.30
2023-03-04T10:36:48.607Z,2.30
2023-03-04T10:42:04.826Z,2.30
2023-03-04T10:47:11.214Z,2.30
2023-03-04T10:52:25.634Z,2.20
2023-03-04T10:57:39.378Z,2.00
2023-03-04T11:02:41.185Z,2.20
2023-03-04T11:07:56.284Z,2.00
2023-03-04T11:12:58.924Z,2.00
2023-03-04T11:18:15.934Z,2.20
2023-03-04T11:23:25.454Z,2.10
2023-03-04T11:28:58.611Z,1.70
2023-03-04T11:34:07.914Z,1.70
2023-03-04T11:39:36.495Z,1.70
2023-03-04T11:44:38.272Z,1.80
2023-03-04T11:49:42.759Z,1.60
2023-03-04T11:55:04.110Z,1.60
2023-03-04T12:00:24.554Z,1.60
2023-03-04T12:05:47.864Z,1.60
2023-03-04T12:10:58.944Z,1.50
2023-03-04T12:16:03.565Z,1.40
2023-03-04T12:21:13.408Z,1.40
2023-03-04T12:26:31.363Z,1.40
2023-03-04T12:31:35.030Z,1.50
2023-03-04T12:37:00.036Z,1.50
2023-03-04T12:42:15.961Z,1.40
2023-03-04T12:47:36.433Z,1.40
2023-03-04T12:52:58.528Z,1.60
2023-03-04T12:58:00.706Z,1.60
2023-03-04T13:03:11.553Z,1.40
2023-03-04T13:08:21.977Z,1.40
2023-03-04T13:13:34.447Z,1.30
2023-03-04T13:18:39.351Z,1.30
2023-03-04T13:23:41.242Z,1.40
2023-03-04T13:28:43.047Z,1.50
2023-03-04T13:33:53.096Z,1.50
2023-03-04T13:39:16.533Z,1.50
2023-03-04T13:44:36.472Z,1.40
2023-03-04T13:49:38.285Z,1.50
2023-03-04T13:54:40.132Z,1.50
2023-03-04T13:59:48.390Z,1.50
2023-03-04T14:05:01.176Z,1.60
2023-03-04T14:10:12.092Z,1.60
2023-03-04T14:15:13.931Z,1.60
2023-03-04T14:20:32.597Z,1.50
2023-03-04T14:25:36.963Z,1.40
2023-03-04T14:30:43.614Z,1.50
2023-03-04T14:35:48.486Z,1.60
2023-03-04T14:40:55.618Z,1.60
2023-03-04T14:46:01.324Z,1.60
2023-03-04T14:51:03.390Z,1.60
2023-03-04T14:56:07.020Z,1.70
2023-03-04T15:01:22.520Z,1.50
2023-03-04T15:06:26.181Z,1.50
2023-03-04T15:11:32.032Z,1.50
2023-03-04T15:16:55.416Z,1.60
2023-03-04T15:22:07.291Z,1.70
2023-03-04T15:27:12.477Z,1.50
2023-03-04T15:32:15.519Z,1.50
2023-03-04T15:37:23.520Z,1.60
2023-03-04T15:42:25.704Z,1.60
2023-03-04T15:47:27.476Z,1.60
2023-03-04T15:52:29.287Z,1.50
2023-03-04T15:57:31.649Z,1.40
2023-03-04T16:02:34.360Z,1.40
2023-03-04T16:07:38.027Z,1.40
2023-03-04T16:12:39.862Z,1.40
2023-03-04T16:17:43.972Z,1.50
2023-03-04T16:22:48.034Z,1.50
2023-03-04T16:27:52.711Z,1.50
2023-03-04T16:32:54.786Z,1.50
2023-03-04T16:37:56.939Z,1.50
2023-03-04T16:42:58.714Z,1.50
2023-03-04T16:48:00.738Z,1.50
2023-03-04T16:53:04.317Z,1.50
2023-03-04T16:58:08.297Z,1.40
2023-03-04T17:03:10.754Z,1.50
2023-03-04T17:08:12.470Z,1.40
2023-03-04T17:13:14.677Z,1.40
2023-03-04T17:18:17.554Z,1.30
2023-03-04T17:23:19.366Z,1.30
2023-03-04T17:28:21.116Z,1.40
2023-03-04T17:33:23.407Z,1.30
2023-03-04T17:38:25.195Z,1.30
2023-03-04T17:43:26.952Z,1.30
2023-03-04T17:48:28.830Z,1.30
2023-03-04T17:53:31.368Z,1.30
2023-03-04T17:58:35.586Z,1.20
2023-03-04T18:03:37.410Z,1.20
2023-03-04T18:08:39.266Z,1.30
2023-03-04T18:13:42.825Z,1.30
2023-03-04T18:18:45.700Z,1.30
2023-03-04T18:23:47.983Z,1.30
2023-03-04T18:28:54.106Z,1.20
2023-03-04T18:33:56.102Z,1.20
2023-03-04T18:38:59.439Z,1.20
2023-03-04T18:44:01.584Z,1.20
2023-03-04T18:49:05.787Z,1.20
2023-03-04T18:54:07.705Z,1.30
2023-03-04T18:59:18.833Z,1.30
2023-03-04T19:04:23.453Z,1.30
2023-03-04T19:09:25.206Z,1.30
2023-03-04T19:14:27.006Z,1.30
2023-03-04T19:19:28.911Z,1.30
2023-03-04T19:24:30.662Z,1.30
2023-03-04T19:29:32.596Z,1.30
2023-03-04T19:34:34.360Z,1.30
2023-03-04T19:39:36.152Z,1.30
2023-03-04T19:44:38.278Z,1.30
2023-03-04T19:49:40.062Z,1.30
2023-03-04T19:54:44.912Z,1.30
2023-03-04T19:59:46.732Z,1.30
2023-03-04T20:04:49.566Z,1.40
2023-03-04T20:09:51.340Z,1.40
2023-03-04T20:14:53.179Z,1.40
2023-03-04T20:19:54.976Z,1.30
2023-03-04T20:24:56.911Z,1.30
2023-03-04T20:29:58.861Z,1.30
2023-03-04T20:35:00.716Z,1.30
2023-03-04T20:40:03.703Z,1.30
2023-03-04T20:45:06.154Z,1.30
2023-03-04T20:50:08.531Z,1.30
2023-03-04T20:55:10.683Z,1.30
2023-03-04T21:00:13.158Z,1.20
2023-03-04T21:05:15.018Z,1.20
2023-03-04T21:10:19.430Z,1.20
2023-03-04T21:15:22.930Z,1.30
2023-03-04T21:20:24.831Z,1.20
2023-03-04T21:25:26.836Z,1.30
2023-03-04T21:30:29.933Z,1.30
2023-03-04T21:35:33.782Z,1.30
2023-03-04T21:40:35.705Z,1.20
2023-03-04T21:45:38.173Z,1.20
2023-03-04T21:50:39.960Z,1.20
2023-03-04T21:55:42.315Z,1.30
2023-03-04T22:00:44.134Z,1.30
2023-03-04T22:05:46.138Z,1.30
2023-03-04T22:10:48.287Z,1.20
2023-03-04T22:15:50.329Z,1.10
2023-03-04T22:20:53.559Z,1.10
2023-03-04T22:25:55.777Z,1.20
2023-03-04T22:30:57.965Z,1.20
2023-03-04T22:35:59.974Z,1.10
2023-03-04T22:41:01.748Z,1.10
2023-03-04T22:46:14.036Z,1.10
2023-03-04T22:51:16.323Z,1.10
2023-03-04T22:56:21.079Z,1.10
2023-03-04T23:01:23.062Z,1.10
2023-03-04T23:06:27.743Z,1.10
2023-03-04T23:11:32.187Z,1.10
2023-03-04T23:16:38.643Z,1.10
2023-03-04T23:21:40.720Z,1.10
2023-03-04T23:26:43.397Z,1.10
2023-03-04T23:31:45.350Z,1.10
2023-03-04T23:36:47.214Z,1.00
2023-03-04T23:41:48.993Z,1.00
2023-03-04T23:46:50.994Z,1.10
2023-03-04T23:51:52.800Z,1.10
2023-03-04T23:56:54.575Z,1.10
